Time;durP1;ratioP1;P1;durP2;ratioP2;P2;SDS_P1;SDS_P2;PMS_P1;PMS_P2;Temp;Humidity;BMP_temperature;BMP_pressure;BME280_temperature;BME280_humidity;BME280_pressure;Samples;Min_cycle;Max_cycle;Signal;HPM_P1;HPM_P2
2022/03/03 00:01:56;;;;;;;10.70;9.60;;;14.30;40.90;;;;;;5074228;28;20039;-72
2022/03/03 00:04:22;;;;;;;12.07;10.38;;;14.30;40.90;;;;;;5092281;28;20468;-72
2022/03/03 00:06:48;;;;;;;12.98;9.75;;;14.30;40.90;;;;;;5092013;28;20048;-72
2022/03/03 00:09:13;;;;;;;11.82;9.38;;;14.30;41.70;;;;;;5073990;28;20040;-72
2022/03/03 00:11:39;;;;;;;11.57;10.07;;;14.30;41.10;;;;;;5074112;28;20044;-72
2022/03/03 00:14:05;;;;;;;10.13;9.13;;;14.30;41.00;;;;;;5074081;28;20368;-72
2022/03/03 00:16:31;;;;;;;10.85;9.52;;;14.30;41.10;;;;;;5091401;28;20474;-72
2022/03/03 00:18:56;;;;;;;10.68;9.57;;;14.30;41.00;;;;;;5073857;28;20105;-72
2022/03/03 00:21:22;;;;;;;12.57;9.98;;;14.20;41.00;;;;;;5073786;28;20036;-71
2022/03/03 00:23:49;;;;;;;10.90;8.93;;;14.20;41.00;;;;;;5091935;28;20036;-72
2022/03/03 00:26:14;;;;;;;12.10;8.50;;;14.20;41.00;;;;;;5074034;28;20123;-71
2022/03/03 00:28:40;;;;;;;10.95;9.27;;;14.20;41.00;;;;;;5073817;28;20514;-72
2022/03/03 00:31:07;;;;;;;11.52;10.02;;;14.20;41.00;;;;;;5073625;28;20201;-72
2022/03/03 00:33:32;;;;;;;9.80;8.80;;;14.20;41.00;;;;;;5073766;28;20051;-71
2022/03/03 00:35:59;;;;;;;11.48;9.88;;;14.20;41.00;;;;;;5073633;28;20036;-71
2022/03/03 00:38:24;;;;;;;11.63;9.82;;;14.20;41.00;;;;;;5095740;28;20044;-72
2022/03/03 00:40:56;;;;;;;12.93;10.30;;;14.10;41.00;;;;;;5077701;28;20094;-72
2022/03/03 00:43:21;;;;;;;11.02;9.68;;;14.10;41.00;;;;;;5095876;28;20070;-71
2022/03/03 00:45:47;;;;;;;11.82;9.82;;;14.10;41.00;;;;;;5077933;28;20044;-71
2022/03/03 00:48:12;;;;;;;11.13;9.38;;;14.10;40.90;;;;;;5077495;28;20040;-72
2022/03/03 00:50:38;;;;;;;10.93;9.55;;;14.10;41.00;;;;;;5095077;28;20076;-72
2022/03/03 00:53:05;;;;;;;10.30;9.20;;;14.10;41.00;;;;;;5077331;28;20465;-72
2022/03/03 00:55:30;;;;;;;13.65;10.05;;;14.10;41.00;;;;;;5095459;28;20048;-72
2022/03/03 00:57:56;;;;;;;9.82;8.40;;;14.00;41.00;;;;;;5077341;28;20166;-72
2022/03/03 01:00:22;;;;;;;10.57;8.95;;;14.00;41.10;;;;;;5077247;28;20040;-72
2022/03/03 01:02:49;;;;;;;10.75;9.20;;;14.00;41.00;;;;;;5077343;28;20040;-71
2022/03/03 01:05:18;;;;;;;10.95;9.73;;;14.00;41.10;;;;;;5077484;28;20047;-72
2022/03/03 01:07:44;;;;;;;9.35;8.23;;;14.00;41.10;;;;;;5095376;28;20043;-71
2022/03/03 01:10:11;;;;;;;12.77;9.30;;;14.00;41.10;;;;;;5095284;28;20035;-71
2022/03/03 01:12:37;;;;;;;10.18;9.15;;;13.90;41.10;;;;;;5077330;28;20043;-71
2022/03/03 01:15:05;;;;;;;11.75;9.50;;;13.90;41.10;;;;;;5076691;28;20048;-72
2022/03/03 01:17:30;;;;;;;10.40;8.75;;;13.90;41.00;;;;;;5076878;28;20036;-71
2022/03/03 01:19:56;;;;;;;11.00;8.93;;;13.90;41.00;;;;;;5095027;28;20038;-71
2022/03/03 01:22:22;;;;;;;10.70;9.30;;;14.00;41.10;;;;;;5095159;28;20485;-71
2022/03/03 01:24:48;;;;;;;10.25;9.00;;;14.00;41.00;;;;;;5095096;28;20036;-71
2022/03/03 01:27:13;;;;;;;11.32;8.25;;;14.10;40.90;;;;;;5076970;28;20111;-71
2022/03/03 01:29:39;;;;;;;10.45;8.30;;;14.30;40.70;;;;;;5094942;28;20086;-71
2022/03/03 01:32:06;;;;;;;9.18;8.13;;;14.50;40.50;;;;;;5094763;28;20032;-72
2022/03/03 01:34:32;;;;;;;8.57;7.30;;;14.70;40.20;;;;;;5076875;28;20032;-71
2022/03/03 01:36:58;;;;;;;8.68;7.63;;;15.00;39.80;;;;;;5094831;28;20423;-71
2022/03/03 01:39:24;;;;;;;7.70;6.75;;;15.30;39.40;;;;;;5076751;28;20032;-71
2022/03/03 01:41:50;;;;;;;7.80;7.05;;;15.60;38.90;;;;;;5076831;28;20111;-72
2022/03/03 01:44:15;;;;;;;8.05;7.25;;;15.90;38.50;;;;;;5094768;28;20040;-71
2022/03/03 01:46:58;;;;;;;7.63;6.88;;;16.10;38.10;;;;;;5076704;28;20048;-71
2022/03/03 01:49:25;;;;;;;7.50;6.72;;;16.40;37.60;;;;;;5094301;28;20067;-71
2022/03/03 01:51:51;;;;;;;9.05;6.60;;;16.60;37.40;;;;;;5076430;28;20078;-72
2022/03/03 01:54:17;;;;;;;8.57;6.75;;;16.90;37.10;;;;;;5076446;28;20032;-72
2022/03/03 01:56:45;;;;;;;7.97;6.50;;;17.00;36.70;;;;;;5094422;28;20119;-72
2022/03/03 01:59:11;;;;;;;7.63;6.25;;;17.20;36.50;;;;;;5094309;28;20080;-71
2022/03/03 02:01:41;;;;;;;7.82;7.05;;;17.40;36.20;;;;;;5076142;28;20479;-72
2022/03/03 02:04:10;;;;;;;7.10;6.40;;;17.50;35.90;;;;;;5076069;28;20059;-71
2022/03/03 02:06:37;;;;;;;7.53;6.75;;;17.60;35.60;;;;;;5094179;28;20047;-71
2022/03/03 02:09:03;;;;;;;7.32;6.55;;;17.80;35.40;;;;;;5075983;28;20539;-72
2022/03/03 02:11:31;;;;;;;6.70;6.00;;;17.90;35.20;;;;;;5076301;28;20056;-71
2022/03/03 02:13:57;;;;;;;6.63;5.80;;;18.00;35.00;;;;;;5075984;28;20047;-72
2022/03/03 02:16:24;;;;;;;6.10;5.50;;;18.10;34.80;;;;;;5075710;28;20060;-71
2022/03/03 02:18:49;;;;;;;9.02;6.57;;;18.20;34.60;;;;;;5076021;28;20040;-72
2022/03/03 02:21:16;;;;;;;6.90;6.07;;;18.30;34.50;;;;;;5075866;28;20369;-72
2022/03/03 02:23:42;;;;;;;6.53;5.80;;;18.40;34.40;;;;;;5075998;28;20038;-71
2022/03/03 02:26:13;;;;;;;7.15;6.45;;;18.40;34.20;;;;;;5093816;28;20039;-71
2022/03/03 02:28:40;;;;;;;7.03;5.75;;;18.50;34.70;;;;;;5075730;28;20048;-71
2022/03/03 02:31:05;;;;;;;6.97;6.00;;;18.60;34.00;;;;;;5075792;28;20407;-72
2022/03/03 02:33:31;;;;;;;6.38;5.75;;;18.60;33.90;;;;;;5075608;28;20040;-72
2022/03/03 02:36:17;;;;;;;7.05;6.35;;;18.70;33.80;;;;;;5075416;28;20048;-71
2022/03/03 02:38:47;;;;;;;6.50;5.70;;;18.80;33.50;;;;;;5075588;28;20432;-71
2022/03/03 02:41:13;;;;;;;6.00;5.40;;;18.80;33.50;;;;;;5093589;28;20043;-70
2022/03/03 02:43:39;;;;;;;6.25;5.65;;;18.90;33.50;;;;;;5093416;28;20036;-72
2022/03/03 02:46:05;;;;;;;6.50;5.90;;;18.90;33.40;;;;;;5093370;28;20093;-72
2022/03/03 02:48:31;;;;;;;6.40;5.80;;;19.00;33.40;;;;;;5093451;28;20037;-71
2022/03/03 02:50:57;;;;;;;6.60;5.90;;;19.00;33.20;;;;;;5075445;28;20038;-72
2022/03/03 02:53:23;;;;;;;7.07;6.40;;;19.00;33.20;;;;;;5075473;28;20418;-72
2022/03/03 02:55:49;;;;;;;8.30;6.57;;;19.10;33.20;;;;;;5093089;28;20098;-72
2022/03/03 02:58:15;;;;;;;7.15;6.03;;;19.10;33.00;;;;;;5074976;28;20050;-72
2022/03/03 03:00:43;;;;;;;6.50;5.88;;;19.20;33.00;;;;;;5092512;28;20434;-72
2022/03/03 03:03:09;;;;;;;6.47;5.88;;;19.20;32.90;;;;;;5093142;28;20510;-72
2022/03/03 03:05:35;;;;;;;6.20;5.60;;;19.20;32.80;;;;;;5074940;28;20039;-71
2022/03/03 03:08:01;;;;;;;6.80;6.10;;;19.30;32.80;;;;;;5075160;28;20522;-71
2022/03/03 03:10:27;;;;;;;6.28;5.68;;;19.30;32.70;;;;;;5074761;28;20050;-71
2022/03/03 03:12:53;;;;;;;6.47;5.93;;;19.30;32.70;;;;;;5092849;28;20043;-72
2022/03/03 03:15:19;;;;;;;6.13;5.63;;;19.30;32.50;;;;;;5092811;28;20457;-72
2022/03/03 03:17:44;;;;;;;6.95;6.18;;;19.30;32.50;;;;;;5074739;28;20127;-71
2022/03/03 03:20:12;;;;;;;6.43;5.82;;;19.30;32.50;;;;;;5074883;28;20040;-71
2022/03/03 03:22:38;;;;;;;7.45;6.75;;;19.20;32.50;;;;;;5074737;28;20039;-72
2022/03/03 03:25:09;;;;;;;6.22;5.65;;;19.20;32.60;;;;;;5074548;28;20480;-72
2022/03/03 03:27:36;;;;;;;6.50;5.90;;;19.10;32.60;;;;;;5092598;28;20487;-72
2022/03/03 03:30:03;;;;;;;6.57;5.95;;;19.00;32.60;;;;;;5074718;28;20082;-72
2022/03/03 03:32:28;;;;;;;6.82;6.13;;;19.00;32.60;;;;;;5092755;28;20043;-72
2022/03/03 03:34:54;;;;;;;7.20;6.53;;;19.00;32.60;;;;;;5074271;28;20043;-72
2022/03/03 03:37:20;;;;;;;6.97;5.78;;;19.00;32.60;;;;;;5074246;28;20036;-72
2022/03/03 03:39:45;;;;;;;6.60;6.10;;;19.00;32.50;;;;;;5074415;28;20040;-72
2022/03/03 03:42:11;;;;;;;6.45;5.68;;;19.00;32.40;;;;;;5092392;28;20036;-72
2022/03/03 03:44:39;;;;;;;5.78;5.25;;;19.10;32.40;;;;;;5092409;28;20470;-72
2022/03/03 03:47:06;;;;;;;6.47;5.88;;;19.10;32.20;;;;;;5074175;28;20506;-72
2022/03/03 03:49:33;;;;;;;7.13;6.47;;;19.10;32.10;;;;;;5074455;28;20086;-72
2022/03/03 03:51:59;;;;;;;7.20;5.97;;;19.10;32.00;;;;;;5092321;28;20034;-72
2022/03/03 03:54:25;;;;;;;6.32;5.72;;;19.20;32.00;;;;;;5074418;28;20496;-72
2022/03/03 03:56:50;;;;;;;6.50;5.78;;;19.20;32.00;;;;;;5074140;28;20132;-72
2022/03/03 03:59:16;;;;;;;5.88;5.30;;;19.20;31.90;;;;;;5073876;28;20044;-72
2022/03/03 04:01:42;;;;;;;9.85;6.05;;;19.30;31.90;;;;;;5074023;28;20043;-72
2022/03/03 04:04:08;;;;;;;6.07;5.57;;;19.30;31.80;;;;;;5092247;28;20032;-72
2022/03/03 04:06:33;;;;;;;6.68;5.93;;;19.30;31.70;;;;;;5074032;28;20093;-72
2022/03/03 04:08:59;;;;;;;7.32;6.38;;;19.30;31.70;;;;;;5073949;28;20105;-72
2022/03/03 04:11:27;;;;;;;6.60;6.00;;;19.30;31.50;;;;;;5091964;28;20039;-72
2022/03/03 04:13:54;;;;;;;6.10;5.57;;;19.30;31.40;;;;;;5074099;28;20048;-72
2022/03/03 04:16:19;;;;;;;7.10;6.40;;;19.30;31.40;;;;;;5091698;28;20105;-72
2022/03/03 04:18:45;;;;;;;6.47;5.88;;;19.30;31.30;;;;;;5073762;28;20113;-72
2022/03/03 04:21:11;;;;;;;6.50;5.90;;;19.30;31.30;;;;;;5092128;28;20110;-72
2022/03/03 04:23:36;;;;;;;6.90;6.20;;;19.30;31.20;;;;;;5073802;28;20404;-72
2022/03/03 04:26:02;;;;;;;7.05;6.15;;;19.30;31.20;;;;;;5091949;28;20142;-72
2022/03/03 04:28:28;;;;;;;7.28;6.57;;;19.30;31.20;;;;;;5091744;28;20432;-72
2022/03/03 04:30:53;;;;;;;6.80;6.15;;;19.30;31.10;;;;;;5074031;28;20475;-72
2022/03/03 04:33:19;;;;;;;7.40;6.70;;;19.30;31.10;;;;;;5092021;28;20098;-72
2022/03/03 04:35:45;;;;;;;6.47;5.95;;;19.20;30.90;;;;;;5091757;28;20511;-72
2022/03/03 04:38:10;;;;;;;7.25;6.55;;;19.20;30.90;;;;;;5073950;28;20539;-72
2022/03/03 04:40:36;;;;;;;6.68;5.97;;;19.20;30.90;;;;;;5091860;28;20123;-72
2022/03/03 04:43:02;;;;;;;8.10;7.40;;;19.20;30.90;;;;;;5073698;28;20051;-72
2022/03/03 04:45:27;;;;;;;7.88;7.18;;;19.20;30.80;;;;;;5091600;28;20044;-72
2022/03/03 04:47:53;;;;;;;7.32;6.63;;;19.20;30.80;;;;;;5073156;28;20422;-72
2022/03/03 04:50:18;;;;;;;7.55;6.65;;;19.20;30.70;;;;;;5073554;28;20032;-72
2022/03/03 04:52:44;;;;;;;6.60;5.90;;;19.20;30.80;;;;;;5091667;28;20093;-72
2022/03/03 04:55:10;;;;;;;6.90;6.20;;;19.20;30.80;;;;;;5073647;28;20127;-72
2022/03/03 04:57:36;;;;;;;7.15;6.45;;;19.20;30.80;;;;;;5073729;28;20044;-72
2022/03/03 05:00:07;;;;;;;7.15;6.55;;;19.20;30.80;;;;;;5091698;28;20074;-72
2022/03/03 05:02:32;;;;;;;7.63;6.93;;;19.20;30.70;;;;;;5073545;28;20090;-72
2022/03/03 05:04:58;;;;;;;7.50;6.70;;;19.20;30.70;;;;;;5073383;28;20032;-72
2022/03/03 05:07:24;;;;;;;7.18;6.47;;;19.20;30.70;;;;;;5091613;28;20036;-72
2022/03/03 05:09:49;;;;;;;8.23;7.15;;;19.20;30.70;;;;;;5073622;28;20491;-72
2022/03/03 05:12:15;;;;;;;7.43;6.72;;;19.20;30.70;;;;;;5073378;28;20048;-72
2022/03/03 05:14:41;;;;;;;6.85;6.15;;;19.30;30.70;;;;;;5073234;28;20048;-72
2022/03/03 05:17:06;;;;;;;8.05;7.00;;;19.20;30.70;;;;;;5069615;28;20092;-72
2022/03/03 05:19:32;;;;;;;7.63;5.82;;;19.30;30.70;;;;;;5069923;28;20047;-72
2022/03/03 05:21:58;;;;;;;7.93;6.65;;;19.30;30.60;;;;;;5069895;28;20044;-72
2022/03/03 05:24:23;;;;;;;7.30;6.70;;;19.30;30.50;;;;;;5074644;28;20091;-72
2022/03/03 05:26:50;;;;;;;6.18;5.63;;;19.30;30.50;;;;;;5074741;28;20101;-72
2022/03/03 05:29:19;;;;;;;6.70;6.20;;;19.40;30.50;;;;;;5073444;28;20047;-72
2022/03/03 05:31:44;;;;;;;7.05;6.35;;;19.40;30.40;;;;;;5074605;28;20041;-73
2022/03/03 05:34:10;;;;;;;7.15;6.55;;;19.40;30.40;;;;;;5074858;28;20032;-72
2022/03/03 05:36:41;;;;;;;7.28;6.38;;;19.50;30.30;;;;;;5073180;28;20123;-72
2022/03/03 05:39:08;;;;;;;6.15;5.57;;;19.40;30.20;;;;;;5073356;28;20032;-72
2022/03/03 05:41:36;;;;;;;7.40;6.60;;;19.40;30.20;;;;;;5073442;28;20106;-72
2022/03/03 05:44:04;;;;;;;6.28;5.40;;;19.40;30.20;;;;;;5073089;28;20097;-72
2022/03/03 05:46:31;;;;;;;6.63;6.03;;;19.40;30.20;;;;;;5073073;28;20051;-73
2022/03/03 05:48:57;;;;;;;7.25;6.55;;;19.40;30.10;;;;;;5074446;28;20380;-72
2022/03/03 05:51:26;;;;;;;7.07;6.28;;;19.40;30.10;;;;;;5074432;28;20040;-72
2022/03/03 05:53:51;;;;;;;7.00;6.30;;;19.40;30.10;;;;;;5074400;28;20109;-72
2022/03/03 05:56:18;;;;;;;6.88;6.22;;;19.30;30.00;;;;;;5074104;28;20043;-72
2022/03/03 05:58:48;;;;;;;9.75;6.60;;;19.30;30.10;;;;;;5073436;28;20051;-72
2022/03/03 06:01:18;;;;;;;6.97;5.68;;;19.30;30.00;;;;;;5073100;28;20036;-72
2022/03/03 06:03:47;;;;;;;9.93;6.32;;;19.30;30.10;;;;;;5074146;28;20071;-72
2022/03/03 06:06:21;;;;;;;6.60;5.90;;;19.30;30.10;;;;;;5073010;28;20400;-72
2022/03/03 06:09:13;;;;;;;6.38;5.88;;;19.20;30.00;;;;;;5074064;28;20103;-72
2022/03/03 06:11:49;;;;;;;6.72;6.03;;;19.20;30.00;;;;;;5072911;28;20036;-72
2022/03/03 06:14:21;;;;;;;6.68;5.97;;;19.20;30.00;;;;;;5074020;28;20082;-72
2022/03/03 06:16:48;;;;;;;6.00;5.50;;;19.20;30.00;;;;;;5072266;28;20055;-72
2022/03/03 06:19:14;;;;;;;7.15;6.53;;;19.20;30.00;;;;;;5071967;28;20041;-72
2022/03/03 06:21:40;;;;;;;6.18;5.60;;;19.20;30.00;;;;;;5072809;28;20127;-72
2022/03/03 06:24:09;;;;;;;7.45;6.65;;;19.20;30.00;;;;;;5073594;28;20496;-72
2022/03/03 06:26:36;;;;;;;7.22;6.45;;;19.30;30.00;;;;;;5072724;28;20544;-72
2022/03/03 06:29:02;;;;;;;6.72;6.13;;;19.30;30.00;;;;;;5072330;28;20551;-72
2022/03/03 06:31:28;;;;;;;7.07;6.38;;;19.30;30.00;;;;;;5073558;28;20124;-72
2022/03/03 06:33:54;;;;;;;6.55;5.95;;;19.30;29.90;;;;;;5073561;28;20119;-72
2022/03/03 06:36:20;;;;;;;6.35;5.75;;;19.30;29.90;;;;;;5071409;28;20415;-69
2022/03/03 06:38:45;;;;;;;5.32;4.90;;;19.30;29.80;;;;;;5071398;28;20504;-69
2022/03/03 06:41:11;;;;;;;6.20;5.53;;;19.30;31.10;;;;;;5070357;28;20028;-68
2022/03/03 06:43:38;;;;;;;6.18;5.25;;;19.30;32.00;;;;;;5068047;28;20384;-68
2022/03/03 06:46:04;;;;;;;6.78;4.40;;;19.40;32.50;;;;;;5066501;28;20052;-72
2022/03/03 06:48:30;;;;;;;9.48;5.18;;;19.30;32.60;;;;;;5070144;28;20072;-72
2022/03/03 06:51:02;;;;;;;6.35;5.10;;;19.30;32.70;;;;;;5069508;28;20116;-74
2022/03/03 06:53:31;;;;;;;7.85;5.68;;;19.30;33.00;;;;;;5067191;28;20044;-72
2022/03/03 06:56:12;;;;;;;7.13;5.60;;;19.40;33.20;;;;;;5069420;28;20044;-73
2022/03/03 06:58:39;;;;;;;7.07;6.38;;;19.40;33.50;;;;;;5067995;28;20669;-73
2022/03/03 07:01:08;;;;;;;6.43;5.45;;;19.50;33.30;;;;;;5058352;28;20039;-74
2022/03/03 07:03:35;;;;;;;15.02;8.65;;;19.50;33.40;;;;;;5067528;28;20041;-74
2022/03/03 07:06:03;;;;;;;8.13;7.32;;;19.60;32.50;;;;;;5065788;28;20488;-74
2022/03/03 07:08:29;;;;;;;8.55;7.03;;;19.60;32.20;;;;;;5064557;28;20120;-74
2022/03/03 07:10:55;;;;;;;8.10;6.03;;;19.70;32.30;;;;;;5065929;28;20036;-74
2022/03/03 07:13:20;;;;;;;8.60;6.45;;;19.70;32.40;;;;;;5066811;28;20086;-73
2022/03/03 07:15:51;;;;;;;6.90;6.20;;;19.80;32.40;;;;;;5073046;28;20131;-75
2022/03/03 07:18:18;;;;;;;;;;;19.80;32.50;;;;;;5064415;28;20075;-75
2022/03/03 07:20:58;;;;;;;6.35;5.75;;;19.90;32.50;;;;;;5063153;28;19919;-77
2022/03/03 07:23:42;;;;;;;6.18;5.65;;;20.00;32.30;;;;;;5046080;28;20043;-81
2022/03/03 07:26:10;;;;;;;5.47;4.97;;;20.00;32.30;;;;;;5076935;28;20098;-78
2022/03/03 07:28:39;;;;;;;6.65;5.85;;;20.20;32.20;;;;;;5058629;28;20044;-74
2022/03/03 07:31:07;;;;;;;6.97;5.23;;;20.30;32.00;;;;;;5062983;28;20047;-82
2022/03/03 07:36:33;;;;;;;5.60;4.18;;;20.40;32.00;;;;;;5092733;27;1453316;-76
2022/03/03 07:39:02;;;;;;;6.00;5.07;;;20.50;32.20;;;;;;5135633;27;20051;-84
2022/03/03 07:41:29;;;;;;;5.77;5.13;;;20.50;32.30;;;;;;5120696;27;20043;-77
2022/03/03 07:43:56;;;;;;;10.25;5.90;;;20.40;32.80;;;;;;5121183;27;20035;-81
2022/03/03 07:46:23;;;;;;;10.25;7.78;;;20.30;33.00;;;;;;5118734;27;20039;-75
2022/03/03 07:48:51;;;;;;;8.45;6.65;;;20.20;32.60;;;;;;5141051;27;20099;-78
2022/03/03 07:51:18;;;;;;;7.97;6.55;;;20.10;32.20;;;;;;5147467;27;20042;-78
2022/03/03 07:53:43;;;;;;;8.95;5.75;;;19.90;32.50;;;;;;5117894;27;20117;-77
2022/03/03 07:56:15;;;;;;;10.27;5.75;;;19.80;32.80;;;;;;5116713;27;20737;-74
2022/03/03 07:58:45;;;;;;;16.02;6.53;;;19.80;33.00;;;;;;5121877;27;20078;-79
2022/03/03 08:01:17;;;;;;;7.68;5.10;;;19.70;33.40;;;;;;5131530;27;20778;-75
2022/03/03 08:03:45;;;;;;;7.75;6.45;;;19.70;33.70;;;;;;5120991;27;20030;-72
2022/03/03 08:06:13;;;;;;;6.05;5.18;;;19.70;33.90;;;;;;5120455;27;21012;-78
2022/03/03 08:08:40;;;;;;;7.15;5.22;;;19.70;34.00;;;;;;5139926;27;20040;-74
2022/03/03 08:11:07;;;;;;;6.82;4.90;;;19.70;34.10;;;;;;5133386;27;20188;-77
2022/03/03 08:13:34;;;;;;;8.13;4.78;;;19.70;34.20;;;;;;5121178;27;20043;-72
2022/03/03 08:16:00;;;;;;;8.45;5.05;;;19.70;34.10;;;;;;5120447;27;20088;-74
2022/03/03 08:18:31;;;;;;;4.95;4.45;;;19.60;34.10;;;;;;5133200;27;20045;-73
2022/03/03 08:21:01;;;;;;;7.07;4.70;;;19.60;34.30;;;;;;5117242;27;20605;-73
2022/03/03 08:23:27;;;;;;;5.95;4.47;;;19.60;34.20;;;;;;5141327;27;20126;-76
2022/03/03 08:25:54;;;;;;;5.07;4.57;;;19.60;34.30;;;;;;5119042;27;20050;-75
2022/03/03 08:28:24;;;;;;;6.03;4.75;;;19.60;34.40;;;;;;5120771;27;20390;-76
2022/03/03 08:30:56;;;;;;;5.17;4.53;;;19.60;34.40;;;;;;5131234;27;20043;-74
2022/03/03 08:33:35;;;;;;;7.25;4.70;;;19.60;34.40;;;;;;5112125;27;20137;-77
2022/03/03 08:36:04;;;;;;;8.73;5.95;;;19.50;34.20;;;;;;5128286;27;20067;-72
2022/03/03 08:38:34;;;;;;;6.35;5.20;;;19.50;34.20;;;;;;5112941;27;20557;-74
2022/03/03 08:41:01;;;;;;;5.35;4.90;;;19.50;34.40;;;;;;5114648;27;20047;-75
2022/03/03 08:43:32;;;;;;;6.15;5.00;;;19.50;34.40;;;;;;5137618;27;20761;-74
2022/03/03 08:46:04;;;;;;;4.53;3.90;;;19.50;34.40;;;;;;5109834;27;20047;-79
2022/03/03 08:48:32;;;;;;;4.88;4.40;;;19.60;34.30;;;;;;5099950;27;20039;-79
2022/03/03 08:50:59;;;;;;;6.38;4.70;;;19.80;34.10;;;;;;5120199;27;20048;-74
2022/03/03 08:53:28;;;;;;;6.15;5.15;;;20.00;34.00;;;;;;5120798;27;20111;-73
2022/03/03 08:55:54;;;;;;;11.55;4.80;;;20.10;33.80;;;;;;5105015;27;20067;-74
2022/03/03 08:58:21;;;;;;;7.47;4.65;;;20.30;33.60;;;;;;5103171;27;20039;-80
2022/03/03 09:00:48;;;;;;;4.80;4.40;;;20.40;33.30;;;;;;5094259;27;20048;-79
2022/03/03 09:03:18;;;;;;;4.47;4.05;;;20.60;33.70;;;;;;5122060;27;20050;-76
2022/03/03 09:05:44;;;;;;;4.47;4.07;;;20.70;32.70;;;;;;5105253;27;20034;-77
2022/03/03 09:08:09;;;;;;;4.72;4.32;;;20.90;32.50;;;;;;5119617;27;20042;-75
2022/03/03 09:10:38;;;;;;;6.07;4.30;;;21.00;32.40;;;;;;5100872;27;20114;-77
2022/03/03 09:13:04;;;;;;;6.63;4.55;;;21.00;32.30;;;;;;5105873;27;20064;-72
2022/03/03 09:15:30;;;;;;;4.60;4.22;;;21.10;32.00;;;;;;5099463;27;20039;-75
2022/03/03 09:17:57;;;;;;;9.00;4.22;;;21.20;32.10;;;;;;5110516;27;20060;-77
2022/03/03 09:20:23;;;;;;;10.70;4.93;;;21.20;32.00;;;;;;5111009;27;20039;-74
2022/03/03 09:22:48;;;;;;;6.88;4.70;;;21.30;31.90;;;;;;5109857;27;20098;-77
2022/03/03 09:25:14;;;;;;;5.30;4.70;;;21.30;31.90;;;;;;5126935;27;20039;-78
2022/03/03 09:27:41;;;;;;;4.90;4.40;;;21.40;31.80;;;;;;5107232;27;20058;-75
2022/03/03 09:30:09;;;;;;;6.53;5.85;;;21.40;31.60;;;;;;5107423;27;20092;-73
2022/03/03 09:32:35;;;;;;;7.60;5.13;;;21.40;31.60;;;;;;5102197;27;20039;-71
2022/03/03 09:35:05;;;;;;;6.88;6.28;;;21.40;31.50;;;;;;5125194;27;20058;-70
2022/03/03 09:37:31;;;;;;;8.57;5.80;;;21.30;31.60;;;;;;5121502;27;20461;-71
2022/03/03 09:39:57;;;;;;;6.18;5.57;;;21.30;30.90;;;;;;5120728;27;20031;-71
2022/03/03 09:42:22;;;;;;;8.18;7.03;;;21.30;30.70;;;;;;5104509;27;20045;-72
2022/03/03 09:44:48;;;;;;;7.55;6.53;;;21.30;30.50;;;;;;5103093;27;20041;-71
2022/03/03 09:47:16;;;;;;;5.60;4.95;;;21.30;30.10;;;;;;5103474;27;20070;-71
2022/03/03 09:49:42;;;;;;;8.13;6.32;;;21.20;30.40;;;;;;5118345;27;20047;-75
2022/03/03 09:52:16;;;;;;;8.55;4.85;;;21.20;30.50;;;;;;5102784;27;20027;-75
2022/03/03 09:54:44;;;;;;;7.10;5.13;;;21.20;30.50;;;;;;5108199;27;20505;-77
2022/03/03 09:57:10;;;;;;;6.30;4.40;;;21.20;30.70;;;;;;5105307;27;20454;-74
2022/03/03 09:59:35;;;;;;;4.85;4.38;;;21.30;31.60;;;;;;5105343;27;20070;-76
2022/03/03 10:02:04;;;;;;;6.72;4.72;;;21.40;30.90;;;;;;5106799;27;20415;-74
2022/03/03 10:04:30;;;;;;;6.75;4.40;;;21.40;30.90;;;;;;5100197;27;20100;-75
2022/03/03 10:07:01;;;;;;;4.93;3.92;;;21.40;30.90;;;;;;5106119;27;20042;-75
2022/03/03 10:09:29;;;;;;;7.43;4.57;;;21.50;30.90;;;;;;5104456;27;20055;-77
2022/03/03 10:12:00;;;;;;;5.43;4.78;;;21.50;30.80;;;;;;5103244;27;20035;-74
2022/03/03 10:14:28;;;;;;;4.80;4.40;;;21.60;30.80;;;;;;5098908;27;20047;-72
2022/03/03 10:16:56;;;;;;;5.22;4.72;;;21.50;30.70;;;;;;5104670;27;20027;-73
2022/03/03 10:19:23;;;;;;;5.50;5.00;;;21.50;30.60;;;;;;5100688;27;20035;-72
2022/03/03 10:21:49;;;;;;;5.63;4.85;;;21.50;30.60;;;;;;5107261;27;20139;-75
2022/03/03 10:24:22;;;;;;;5.25;4.75;;;21.60;30.60;;;;;;5122214;27;20051;-75
2022/03/03 10:26:57;;;;;;;5.90;4.47;;;21.50;30.50;;;;;;5106000;27;20067;-74
2022/03/03 10:29:23;;;;;;;5.25;4.65;;;21.50;30.20;;;;;;5122124;27;20069;-75
2022/03/03 10:31:51;;;;;;;5.75;5.20;;;21.50;30.30;;;;;;5122839;27;20028;-74
2022/03/03 10:34:20;;;;;;;6.32;4.78;;;21.60;30.20;;;;;;5096913;27;20478;-76
2022/03/03 10:37:07;;;;;;;6.13;4.65;;;21.60;30.00;;;;;;5092258;27;21380;-77
2022/03/03 10:42:21;;;;;;;6.60;4.47;;;21.70;29.90;;;;;;5059045;27;21006;-76
2022/03/03 10:44:48;;;;;;;5.35;4.03;;;22.10;30.00;;;;;;5047118;28;20053;-77
2022/03/03 10:47:16;;;;;;;4.65;4.25;;;22.00;30.30;;;;;;5051680;28;20052;-70
2022/03/03 10:49:44;;;;;;;4.97;4.03;;;22.00;30.20;;;;;;5034248;28;20059;-71
2022/03/03 10:52:32;;;;;;;5.78;3.45;;;22.00;30.30;;;;;;5054823;28;20060;-75
2022/03/03 10:55:06;;;;;;;4.15;3.83;;;22.10;30.60;;;;;;5030955;28;20048;-76
2022/03/03 11:00:27;;;;;;;4.25;3.65;;;22.20;30.70;;;;;;5064479;27;20409;-63
2022/03/03 11:02:55;;;;;;;5.22;3.70;;;22.10;30.70;;;;;;5057295;28;20068;-74
2022/03/03 11:05:23;;;;;;;6.40;4.80;;;22.20;30.70;;;;;;5055844;28;20037;-74
2022/03/03 11:07:50;;;;;;;4.88;4.30;;;22.10;30.60;;;;;;5053556;28;20059;-73
2022/03/03 11:10:18;;;;;;;4.80;4.28;;;22.00;30.50;;;;;;5068281;28;20748;-72
2022/03/03 11:12:45;;;;;;;5.40;4.05;;;22.00;30.30;;;;;;5054318;28;20526;-75
2022/03/03 11:15:15;;;;;;;4.93;4.13;;;21.90;30.00;;;;;;5070385;28;20150;-76
2022/03/03 11:17:41;;;;;;;4.53;4.10;;;21.90;30.10;;;;;;5055831;28;20033;-74
2022/03/03 11:20:10;;;;;;;3.92;3.53;;;21.80;31.00;;;;;;5074888;28;20129;-75
2022/03/03 11:22:36;;;;;;;5.55;4.32;;;21.90;30.90;;;;;;5053520;28;20069;-76
2022/03/03 11:25:08;;;;;;;5.95;4.30;;;21.80;30.40;;;;;;5055858;28;20157;-76
2022/03/03 11:27:37;;;;;;;3.85;3.55;;;21.90;30.40;;;;;;5070975;28;20039;-80
2022/03/03 11:30:30;;;;;;;3.45;2.95;;;21.90;30.30;;;;;;5053409;28;20459;-80
2022/03/03 11:33:23;;;;;;;5.90;4.18;;;22.10;30.30;;;;;;5054284;28;21140;-78
2022/03/03 11:38:53;;;;;;;5.95;4.65;;;22.10;29.90;;;;;;5118060;27;1162748;-70
2022/03/03 11:41:23;;;;;;;6.82;4.65;;;22.00;29.20;;;;;;5115131;27;20126;-74
2022/03/03 11:43:59;;;;;;;7.05;4.25;;;22.00;29.20;;;;;;5117002;27;20099;-75
2022/03/03 11:46:46;;;;;;;8.57;4.60;;;22.00;29.60;;;;;;5133857;27;20043;-71
2022/03/03 11:49:16;;;;;;;5.93;4.00;;;21.90;29.80;;;;;;5114003;27;20478;-74
2022/03/03 11:51:44;;;;;;;6.40;4.30;;;21.90;29.90;;;;;;5116320;27;20114;-76
2022/03/03 11:54:11;;;;;;;5.70;4.15;;;21.90;29.90;;;;;;5120562;27;20043;-75
2022/03/03 11:59:47;;;;;;;4.60;3.08;;;22.00;30.00;;;;;;5081034;27;20482;-74
2022/03/03 12:02:18;;;;;;;5.20;2.83;;;21.90;30.00;;;;;;5076590;28;20133;-75
2022/03/03 12:04:44;;;;;;;6.65;3.03;;;21.90;30.00;;;;;;5080432;28;20666;-74
2022/03/03 12:07:27;;;;;;;7.97;3.13;;;21.90;30.00;;;;;;5078815;28;20036;-72
2022/03/03 12:09:53;;;;;;;3.85;2.92;;;22.00;30.10;;;;;;5080805;28;20189;-79
2022/03/03 12:12:28;;;;;;;5.97;3.10;;;22.00;30.00;;;;;;5077601;28;20501;-71
2022/03/03 12:14:58;;;;;;;4.13;2.83;;;22.10;30.00;;;;;;5069105;28;20523;-71
2022/03/03 12:23:19;;;;;;;2.55;2.30;;;22.20;29.90;;;;;;5056744;28;20588;-72
2022/03/03 12:31:26;;;;;;;3.83;2.67;;;22.70;29.60;;;;;;5066766;27;20405;-77
2022/03/03 12:36:44;;;;;;;3.42;2.90;;;22.80;29.70;;;;;;5053253;27;20461;-78
2022/03/03 12:39:10;;;;;;;3.10;2.25;;;22.90;29.50;;;;;;5050759;28;20040;-73
2022/03/03 12:41:38;;;;;;;4.30;2.65;;;22.90;29.60;;;;;;5021674;28;20048;-74
2022/03/03 12:44:09;;;;;;;3.92;2.03;;;23.00;29.70;;;;;;5035360;28;20996;-73
2022/03/03 12:46:35;;;;;;;4.07;2.30;;;22.90;29.60;;;;;;5030795;28;20034;-78
2022/03/03 12:49:04;;;;;;;3.22;2.30;;;22.90;29.50;;;;;;5058853;28;20036;-76
2022/03/03 12:51:31;;;;;;;4.93;2.25;;;22.90;29.50;;;;;;5034833;28;20051;-77
2022/03/03 12:53:56;;;;;;;4.10;2.55;;;22.90;29.50;;;;;;5035496;28;20068;-74
2022/03/03 12:56:26;;;;;;;4.20;2.33;;;22.90;29.40;;;;;;5032023;28;20124;-77
2022/03/03 12:58:52;;;;;;;4.45;2.50;;;22.90;29.60;;;;;;5029427;28;20214;-78
2022/03/03 13:01:20;;;;;;;2.40;2.20;;;22.90;29.60;;;;;;5032498;28;20037;-76
2022/03/03 13:03:46;;;;;;;3.45;2.40;;;23.00;29.40;;;;;;5039082;28;20075;-78
2022/03/03 13:06:11;;;;;;;2.75;2.13;;;22.90;29.20;;;;;;5035900;28;20179;-72
2022/03/03 13:08:38;;;;;;;3.13;2.25;;;23.00;29.10;;;;;;5037799;28;20041;-76
2022/03/03 13:13:48;;;;;;;3.28;2.38;;;22.90;29.10;;;;;;5106651;27;20513;-72
2022/03/03 13:18:51;;;;;;;4.40;2.17;;;22.90;29.10;;;;;;5099450;27;1161363;-76
2022/03/03 13:21:19;;;;;;;2.47;2.00;;;22.90;29.30;;;;;;5119042;27;20043;-73
2022/03/03 13:23:47;;;;;;;3.58;2.45;;;22.90;29.40;;;;;;5096173;27;20047;-74